LFMT/MPL METAR and TAF weather

Enter ICAO airport designator
Station Type Date Time Source
LFMT METAR 2018/12/13 23:30 UTC NOAA

LFMT 132330Z AUTO 36008KT 9999 -DZ OVC041 07/05 Q1011 NOSIG


Station Type Date Time Source
LFMT Decoded METAR 2018/12/13 23:30 UTC NOAA

Montpellier, France (LFMT) 43-35N 003-58E 6M
Dec 13, 2018 - 06:30 PM EST / 2018.12.13 2330 UTC
Wind: from the N (360 degrees) at 9 MPH (8 KT):0
Visibility: greater than 7 mile(s):0
Sky conditions: overcast
Weather: light drizzle
Temperature: 44 F (7 C)
Dew Point: 41 F (5 C)
Relative Humidity: 87%
Pressure (altimeter): 29.85 in. Hg (1011 hPa)
ob: LFMT 132330Z AUTO 36008KT 9999 -DZ OVC041 07/05 Q1011 NOSIG
cycle: 23

Station Type Date Time Source
LFMT TAF 2018/12/13 21:21 UTC NOAA

TAF TAF LFMT 132000Z 1321/1421 02012KT 9999 BKN040 PROB30
TEMPO 1321/1324 4000 BR -RA
BECMG 1405/1407 VRB05KT NSC


Example: see airport list